Time;durP1;ratioP1;P1;durP2;ratioP2;P2;SDS_P1;SDS_P2;PMS_P1;PMS_P2;Temp;Humidity;BMP_temperature;BMP_pressure;BME280_temperature;BME280_humidity;BME280_pressure;Samples;Min_cycle;Max_cycle;Signal;HPM_P1;HPM_P2
2023/03/14 00:00:16;;;;;;;3.83;2.60;;;;;;;;;;5134146;27;20479;-69
2023/03/14 00:02:44;;;;;;;5.23;2.67;;;;;;;;;;5117399;27;20460;-69
2023/03/14 00:05:12;;;;;;;7.40;3.10;;;;;;;;;;5113933;28;20751;-70
2023/03/14 00:07:41;;;;;;;2.53;2.30;;;;;;;;;;5114246;28;20519;-69
2023/03/14 00:10:09;;;;;;;5.53;2.87;;;;;;;;;;5115559;28;20437;-69
2023/03/14 00:12:36;;;;;;;7.90;2.87;;;;;;;;;;5114159;28;20430;-69
2023/03/14 00:15:04;;;;;;;7.70;3.10;;;;;;;;;;5113840;28;20519;-69
2023/03/14 00:17:31;;;;;;;4.33;3.03;;;;;;;;;;5117244;28;20436;-69
2023/03/14 00:20:07;;;;;;;6.47;2.57;;;;;;;;;;5118387;28;20512;-69
2023/03/14 00:22:35;;;;;;;6.83;2.43;;;;;;;;;;5117576;28;20911;-69
2023/03/14 00:25:04;;;;;;;4.57;2.53;;;;;;;;;;5118082;28;20427;-68
2023/03/14 00:27:31;;;;;;;8.37;2.80;;;;;;;;;;5117808;28;20427;-68
2023/03/14 00:29:58;;;;;;;6.27;2.23;;;;;;;;;;5117366;28;20482;-69
2023/03/14 00:32:25;;;;;;;9.00;2.73;;;;;;;;;;5117744;28;20543;-68
2023/03/14 00:34:52;;;;;;;5.00;2.73;;;;;;;;;;5118221;28;20439;-68
2023/03/14 00:37:20;;;;;;;8.63;3.30;;;;;;;;;;5117583;28;20438;-68
2023/03/14 00:39:47;;;;;;;4.73;2.60;;;;;;;;;;5117318;28;20441;-68
2023/03/14 00:42:16;;;;;;;7.90;2.80;;;;;;;;;;5117427;28;20533;-69
2023/03/14 00:44:43;;;;;;;10.23;2.80;;;;;;;;;;5117169;28;20437;-69
2023/03/14 00:47:10;;;;;;;5.80;2.47;;;;;;;;;;5117029;28;20924;-69
2023/03/14 00:49:37;;;;;;;5.70;2.70;;;;;;;;;;5117527;28;20567;-69
2023/03/14 00:52:04;;;;;;;6.83;2.17;;;;;;;;;;5117304;28;20441;-69
2023/03/14 00:54:31;;;;;;;5.10;2.23;;;;;;;;;;5117321;28;20423;-69
2023/03/14 00:56:59;;;;;;;5.03;2.53;;;;;;;;;;5116922;28;20435;-69
2023/03/14 00:59:27;;;;;;;8.33;4.53;;;;;;;;;;5117195;28;20447;-68
2023/03/14 01:01:54;;;;;;;9.73;3.10;;;;;;;;;;5119315;27;20804;-69
2023/03/14 01:04:22;;;;;;;8.60;2.60;;;;;;;;;;5117111;28;20558;-69
2023/03/14 01:06:49;;;;;;;5.60;2.43;;;;;;;;;;5117036;28;20770;-69
2023/03/14 01:09:17;;;;;;;6.13;2.40;;;;;;;;;;5119044;27;20478;-69
2023/03/14 01:11:46;;;;;;;6.67;2.30;;;;;;;;;;5117306;28;20439;-69
2023/03/14 01:14:13;;;;;;;9.70;3.37;;;;;;;;;;5116962;28;20817;-69
2023/03/14 01:16:42;;;;;;;5.13;2.77;;;;;;;;;;5117050;28;20829;-69
2023/03/14 01:19:09;;;;;;;9.23;3.47;;;;;;;;;;5116801;28;20800;-69
2023/03/14 01:21:36;;;;;;;6.70;2.40;;;;;;;;;;5116759;28;20427;-69
2023/03/14 01:24:05;;;;;;;8.13;2.50;;;;;;;;;;5116739;28;20789;-69
2023/03/14 01:26:33;;;;;;;5.30;2.77;;;;;;;;;;5115727;28;20436;-69
2023/03/14 01:29:01;;;;;;;6.90;2.83;;;;;;;;;;5116584;28;20478;-69
2023/03/14 01:31:28;;;;;;;8.13;2.67;;;;;;;;;;5116723;28;20441;-69
2023/03/14 01:33:57;;;;;;;4.07;2.53;;;;;;;;;;5116630;28;20449;-69
2023/03/14 01:36:24;;;;;;;6.20;2.20;;;;;;;;;;5116385;28;20770;-69
2023/03/14 01:38:51;;;;;;;3.40;2.20;;;;;;;;;;5116445;28;20542;-69
2023/03/14 01:41:19;;;;;;;6.67;2.47;;;;;;;;;;5116419;28;20430;-69
2023/03/14 01:43:47;;;;;;;5.53;2.20;;;;;;;;;;5115863;28;20442;-69
2023/03/14 01:46:19;;;;;;;9.80;2.97;;;;;;;;;;5115935;28;20435;-69
2023/03/14 01:48:49;;;;;;;5.97;2.43;;;;;;;;;;5116188;28;20810;-69
2023/03/14 01:51:19;;;;;;;8.00;2.63;;;;;;;;;;5115914;28;20433;-69
2023/03/14 01:53:46;;;;;;;9.57;2.77;;;;;;;;;;5116564;28;20428;-69
2023/03/14 01:56:15;;;;;;;7.50;2.60;;;;;;;;;;5116332;28;20436;-69
2023/03/14 01:58:43;;;;;;;5.10;2.37;;;;;;;;;;5116010;28;20448;-69
2023/03/14 02:01:10;;;;;;;4.67;1.90;;;;;;;;;;5117974;27;20444;-68
2023/03/14 02:03:40;;;;;;;5.10;2.30;;;;;;;;;;5115654;28;21057;-68
2023/03/14 02:06:09;;;;;;;2.67;2.10;;;;;;;;;;5116117;28;20458;-68
2023/03/14 02:08:39;;;;;;;5.97;2.73;;;;;;;;;;5117557;27;20478;-68
2023/03/14 02:11:08;;;;;;;4.30;1.83;;;;;;;;;;5116071;28;20418;-68
2023/03/14 02:13:35;;;;;;;3.50;1.80;;;;;;;;;;5115283;28;20443;-68
2023/03/14 02:16:02;;;;;;;4.13;2.20;;;;;;;;;;5115651;28;20913;-68
2023/03/14 02:18:30;;;;;;;7.80;2.30;;;;;;;;;;5115601;28;20426;-68
2023/03/14 02:20:59;;;;;;;6.87;2.20;;;;;;;;;;5116433;28;20462;-69
2023/03/14 02:23:30;;;;;;;3.70;2.23;;;;;;;;;;5115458;28;20773;-68
2023/03/14 02:26:01;;;;;;;8.10;2.30;;;;;;;;;;5115555;28;20431;-68
2023/03/14 02:28:30;;;;;;;4.83;2.00;;;;;;;;;;5115569;28;20423;-68
2023/03/14 02:30:57;;;;;;;5.77;2.30;;;;;;;;;;5115586;28;20428;-68
2023/03/14 02:33:24;;;;;;;4.73;1.83;;;;;;;;;;5115296;28;20442;-68
2023/03/14 02:35:53;;;;;;;1.70;1.60;;;;;;;;;;5115059;28;20431;-69
2023/03/14 02:38:23;;;;;;;2.40;2.03;;;;;;;;;;5114169;28;20434;-68
2023/03/14 02:40:50;;;;;;;3.50;2.17;;;;;;;;;;5114846;28;20436;-68
2023/03/14 02:43:17;;;;;;;2.80;2.17;;;;;;;;;;5115081;28;20451;-69
2023/03/14 02:45:47;;;;;;;4.43;2.30;;;;;;;;;;5115531;28;20440;-68
2023/03/14 02:48:17;;;;;;;3.10;2.03;;;;;;;;;;5115652;28;20438;-68
2023/03/14 02:50:45;;;;;;;8.43;2.53;;;;;;;;;;5115267;28;20476;-68
2023/03/14 02:53:13;;;;;;;5.23;2.47;;;;;;;;;;5114952;28;20428;-68
2023/03/14 02:55:41;;;;;;;4.30;1.47;;;;;;;;;;5114732;28;20434;-71
2023/03/14 02:58:08;;;;;;;6.43;2.40;;;;;;;;;;5114725;28;20784;-69
2023/03/14 03:00:35;;;;;;;2.30;1.60;;;;;;;;;;5114973;27;20660;-69
2023/03/14 03:03:05;;;;;;;9.40;1.60;;;;;;;;;;5116683;27;20463;-69
2023/03/14 03:05:32;;;;;;;5.13;2.33;;;;;;;;;;5115268;28;20423;-68
2023/03/14 03:08:00;;;;;;;10.23;2.13;;;;;;;;;;5116622;27;20454;-69
2023/03/14 03:10:27;;;;;;;4.30;1.90;;;;;;;;;;5114273;28;20474;-68
2023/03/14 03:12:54;;;;;;;4.53;1.40;;;;;;;;;;5114478;28;20504;-69
2023/03/14 03:15:21;;;;;;;3.00;1.60;;;;;;;;;;5114700;28;20436;-68
2023/03/14 03:17:49;;;;;;;2.80;1.63;;;;;;;;;;5114211;28;20446;-69
2023/03/14 03:20:17;;;;;;;2.70;1.70;;;;;;;;;;5114627;28;20446;-68
2023/03/14 03:22:45;;;;;;;5.13;2.13;;;;;;;;;;5114465;28;20434;-69
2023/03/14 03:25:12;;;;;;;2.53;2.10;;;;;;;;;;5114109;28;20427;-68
2023/03/14 03:27:39;;;;;;;2.60;1.83;;;;;;;;;;5114454;28;20456;-69
2023/03/14 03:30:07;;;;;;;7.07;2.63;;;;;;;;;;5114197;28;20470;-68
2023/03/14 03:32:35;;;;;;;3.50;2.03;;;;;;;;;;5114330;28;20430;-69
2023/03/14 03:35:03;;;;;;;9.90;2.00;;;;;;;;;;5114241;28;20772;-68
2023/03/14 03:37:32;;;;;;;4.77;2.50;;;;;;;;;;5114272;28;20430;-68
2023/03/14 03:40:00;;;;;;;3.83;2.03;;;;;;;;;;5114278;28;20779;-68
2023/03/14 03:42:27;;;;;;;5.53;2.17;;;;;;;;;;5114145;28;20440;-68
2023/03/14 03:44:55;;;;;;;4.73;2.50;;;;;;;;;;5113819;28;20443;-68
2023/03/14 03:47:22;;;;;;;3.40;2.70;;;;;;;;;;5114138;28;20437;-68
2023/03/14 03:49:49;;;;;;;7.73;2.70;;;;;;;;;;5129101;27;20474;-68
2023/03/14 03:52:16;;;;;;;3.77;2.67;;;;;;;;;;5134332;27;20434;-68
2023/03/14 03:54:45;;;;;;;4.50;2.93;;;;;;;;;;5134437;27;20430;-68
2023/03/14 03:57:12;;;;;;;7.17;3.23;;;;;;;;;;5134505;27;20438;-68
2023/03/14 03:59:40;;;;;;;6.33;2.97;;;;;;;;;;5134332;27;20444;-68
2023/03/14 04:02:08;;;;;;;8.23;4.17;;;;;;;;;;5122368;27;20794;-68
2023/03/14 04:04:35;;;;;;;8.83;3.90;;;;;;;;;;5113372;28;20474;-68
2023/03/14 04:07:02;;;;;;;8.57;3.40;;;;;;;;;;5113886;28;20754;-68
2023/03/14 04:09:29;;;;;;;6.77;3.53;;;;;;;;;;5115625;27;20822;-68
2023/03/14 04:11:58;;;;;;;8.03;2.93;;;;;;;;;;5113631;28;20431;-68
2023/03/14 04:14:25;;;;;;;7.67;3.40;;;;;;;;;;5113645;28;20444;-68
2023/03/14 04:16:52;;;;;;;8.87;3.40;;;;;;;;;;5113756;28;20422;-67
2023/03/14 04:19:19;;;;;;;6.33;3.17;;;;;;;;;;5125860;28;20439;-68
2023/03/14 04:21:46;;;;;;;9.30;3.70;;;;;;;;;;5134175;28;20430;-68
2023/03/14 04:24:14;;;;;;;11.20;3.67;;;;;;;;;;5133854;28;20454;-69
2023/03/14 04:26:41;;;;;;;7.30;3.10;;;;;;;;;;5134080;27;20427;-67
2023/03/14 04:29:10;;;;;;;4.63;2.73;;;;;;;;;;5133658;28;20431;-68
2023/03/14 04:31:37;;;;;;;13.80;3.60;;;;;;;;;;5134127;28;20422;-68
2023/03/14 04:34:04;;;;;;;7.50;3.10;;;;;;;;;;5133983;28;20432;-68
2023/03/14 04:36:31;;;;;;;9.63;4.00;;;;;;;;;;5134005;28;20431;-68
2023/03/14 04:38:58;;;;;;;7.00;2.87;;;;;;;;;;5133805;28;20435;-68
2023/03/14 04:41:25;;;;;;;7.60;2.97;;;;;;;;;;5134037;28;20434;-68
2023/03/14 04:43:52;;;;;;;6.43;3.20;;;;;;;;;;5133609;28;20446;-68
2023/03/14 04:46:21;;;;;;;4.47;3.43;;;;;;;;;;5133876;28;20455;-68
2023/03/14 04:48:48;;;;;;;4.80;2.70;;;;;;;;;;5134271;28;20770;-68
2023/03/14 04:51:15;;;;;;;6.20;2.80;;;;;;;;;;5134106;28;20480;-69
2023/03/14 04:53:43;;;;;;;6.30;2.67;;;;;;;;;;5133987;28;20429;-68
2023/03/14 04:56:12;;;;;;;6.10;2.90;;;;;;;;;;5133729;28;20438;-69
2023/03/14 04:58:39;;;;;;;4.80;2.10;;;;;;;;;;5133529;28;20777;-68
2023/03/14 05:01:07;;;;;;;7.27;2.30;;;;;;;;;;5133658;27;20774;-69
2023/03/14 05:03:37;;;;;;;3.73;2.10;;;;;;;;;;5136822;27;20465;-68
2023/03/14 05:06:05;;;;;;;6.60;2.43;;;;;;;;;;5137580;27;20418;-68
2023/03/14 05:08:32;;;;;;;4.37;2.43;;;;;;;;;;5137697;27;20430;-68
2023/03/14 05:10:59;;;;;;;7.20;3.17;;;;;;;;;;5136987;27;20465;-68
2023/03/14 05:13:26;;;;;;;7.40;2.80;;;;;;;;;;5137609;27;20429;-68
2023/03/14 05:15:55;;;;;;;4.00;2.83;;;;;;;;;;5136889;27;20439;-68
2023/03/14 05:18:22;;;;;;;7.43;2.80;;;;;;;;;;5137084;27;20431;-68
2023/03/14 05:20:56;;;;;;;3.67;2.70;;;;;;;;;;5136881;27;20438;-68
2023/03/14 05:23:23;;;;;;;9.30;2.60;;;;;;;;;;5137285;27;20453;-68
2023/03/14 05:25:51;;;;;;;5.73;2.03;;;;;;;;;;5137096;27;20437;-67
2023/03/14 05:28:18;;;;;;;2.80;2.60;;;;;;;;;;5137031;27;20431;-68
2023/03/14 05:30:45;;;;;;;4.50;2.00;;;;;;;;;;5136923;27;20470;-67
2023/03/14 05:33:12;;;;;;;8.13;2.87;;;;;;;;;;5136707;27;20438;-68
2023/03/14 05:35:39;;;;;;;9.93;2.30;;;;;;;;;;5137070;27;20779;-68
2023/03/14 05:38:08;;;;;;;4.60;1.70;;;;;;;;;;5136827;27;20439;-68
2023/03/14 05:40:36;;;;;;;2.03;1.70;;;;;;;;;;5136520;27;20438;-66
2023/03/14 05:43:03;;;;;;;8.00;2.03;;;;;;;;;;5136889;27;20435;-72
2023/03/14 05:45:30;;;;;;;2.10;1.73;;;;;;;;;;5136485;27;20441;-67
2023/03/14 05:47:57;;;;;;;3.13;1.73;;;;;;;;;;5136808;27;20552;-68
2023/03/14 05:50:24;;;;;;;5.90;1.80;;;;;;;;;;5136459;27;20469;-68
2023/03/14 05:52:51;;;;;;;6.97;2.90;;;;;;;;;;5136350;27;20429;-67
2023/03/14 05:55:20;;;;;;;5.87;1.67;;;;;;;;;;5136270;27;20441;-67
2023/03/14 05:57:47;;;;;;;2.60;1.60;;;;;;;;;;5136614;27;20433;-68
2023/03/14 06:00:15;;;;;;;2.80;1.40;;;;;;;;;;5136404;27;20435;-68
2023/03/14 06:02:42;;;;;;;3.03;1.63;;;;;;;;;;5136169;27;20435;-67
2023/03/14 06:05:09;;;;;;;3.73;1.37;;;;;;;;;;5135773;27;20971;-68
2023/03/14 06:07:36;;;;;;;1.60;1.50;;;;;;;;;;5136684;27;20434;-68
2023/03/14 06:10:04;;;;;;;4.10;1.77;;;;;;;;;;5136213;27;20482;-68
2023/03/14 06:12:33;;;;;;;2.23;1.40;;;;;;;;;;5135925;27;20938;-68
2023/03/14 06:15:00;;;;;;;2.93;1.30;;;;;;;;;;5135969;27;20444;-68
2023/03/14 06:17:27;;;;;;;4.50;1.60;;;;;;;;;;5135758;27;20437;-68
2023/03/14 06:19:54;;;;;;;1.83;1.50;;;;;;;;;;5135751;27;20440;-67
2023/03/14 06:22:21;;;;;;;9.27;1.77;;;;;;;;;;5135952;27;20460;-68
2023/03/14 06:24:48;;;;;;;7.63;1.60;;;;;;;;;;5135986;27;20429;-68
2023/03/14 06:27:16;;;;;;;2.77;1.50;;;;;;;;;;5135495;27;20441;-68
2023/03/14 06:29:44;;;;;;;4.60;2.50;;;;;;;;;;5135793;27;20769;-68
2023/03/14 06:32:12;;;;;;;5.50;3.03;;;;;;;;;;5136018;27;20795;-68
2023/03/14 06:34:40;;;;;;;2.00;1.80;;;;;;;;;;5135654;27;20895;-67
2023/03/14 06:37:07;;;;;;;4.70;2.67;;;;;;;;;;5135880;27;20517;-66
2023/03/14 06:39:34;;;;;;;4.80;4.40;;;;;;;;;;5135969;27;20434;-66
2023/03/14 06:42:02;;;;;;;3.37;2.87;;;;;;;;;;5135630;27;20433;-66
2023/03/14 06:44:29;;;;;;;5.30;3.37;;;;;;;;;;5136111;27;20435;-66
2023/03/14 06:46:57;;;;;;;5.37;3.43;;;;;;;;;;5135183;27;20429;-66
2023/03/14 06:49:25;;;;;;;6.90;3.97;;;;;;;;;;5135215;27;20879;-66
2023/03/14 06:51:52;;;;;;;3.83;3.53;;;;;;;;;;5135052;27;20467;-66
2023/03/14 06:54:19;;;;;;;4.00;3.60;;;;;;;;;;5135477;27;20526;-66
2023/03/14 06:56:46;;;;;;;4.40;3.60;;;;;;;;;;5135335;27;20430;-66
2023/03/14 06:59:13;;;;;;;3.80;3.27;;;;;;;;;;5135424;27;20435;-66
2023/03/14 07:01:41;;;;;;;2.93;2.60;;;;;;;;;;5135254;27;20430;-66
2023/03/14 07:04:10;;;;;;;2.83;2.60;;;;;;;;;;5135063;27;20516;-66
2023/03/14 07:06:38;;;;;;;2.47;2.27;;;;;;;;;;5134840;27;20915;-66
2023/03/14 07:09:05;;;;;;;3.55;2.90;;;;;;;;;;5134926;27;20441;-66
2023/03/14 07:11:34;;;;;;;2.80;2.60;;;;;;;;;;5135187;27;20295;-66
2023/03/14 07:14:01;;;;;;;3.20;2.40;;;;;;;;;;5135133;27;20439;-67
2023/03/14 07:16:31;;;;;;;3.77;3.37;;;;;;;;;;5135203;27;20437;-67
2023/03/14 07:18:58;;;;;;;3.70;2.97;;;;;;;;;;5134627;27;20439;-66
2023/03/14 07:21:27;;;;;;;4.10;3.13;;;;;;;;;;5135137;27;20445;-66
2023/03/14 07:23:54;;;;;;;3.40;3.03;;;;;;;;;;5134654;27;20446;-66
2023/03/14 07:26:21;;;;;;;3.70;3.43;;;;;;;;;;5133896;27;20439;-66
2023/03/14 07:28:49;;;;;;;4.80;4.40;;;;;;;;;;5134483;27;20465;-66
2023/03/14 07:31:16;;;;;;;6.23;5.67;;;;;;;;;;5134800;27;20465;-67
2023/03/14 07:33:43;;;;;;;4.63;4.23;;;;;;;;;;5134420;27;20516;-66
2023/03/14 07:36:11;;;;;;;6.10;4.60;;;;;;;;;;5134626;27;20765;-66
2023/03/14 07:38:39;;;;;;;5.20;4.80;;;;;;;;;;5134335;27;20433;-66
2023/03/14 07:41:07;;;;;;;6.33;4.50;;;;;;;;;;5134689;27;20436;-66
2023/03/14 07:43:35;;;;;;;5.63;5.13;;;;;;;;;;5134159;27;20990;-66
2023/03/14 07:46:02;;;;;;;6.03;5.43;;;;;;;;;;5134581;27;20431;-67
2023/03/14 07:48:29;;;;;;;6.00;5.33;;;;;;;;;;5134141;27;20517;-66
2023/03/14 07:50:57;;;;;;;6.07;5.47;;;;;;;;;;5134485;27;20558;-66
2023/03/14 07:53:25;;;;;;;6.50;5.90;;;;;;;;;;5134428;27;20466;-66
2023/03/14 07:55:54;;;;;;;6.73;5.30;;;;;;;;;;5134183;27;20465;-66
2023/03/14 07:58:22;;;;;;;7.20;5.73;;;;;;;;;;5134358;27;20441;-66
2023/03/14 08:00:49;;;;;;;5.37;4.87;;;;;;;;;;5134583;27;20437;-65
2023/03/14 08:03:17;;;;;;;5.67;5.07;;;;;;;;;;5134179;27;20535;-66
2023/03/14 08:05:44;;;;;;;7.60;5.80;;;;;;;;;;5134191;27;20430;-66
2023/03/14 08:08:12;;;;;;;7.67;5.80;;;;;;;;;;5134224;28;20417;-67
2023/03/14 08:10:39;;;;;;;5.80;5.30;;;;;;;;;;5134184;28;20466;-66
2023/03/14 08:13:07;;;;;;;9.30;6.23;;;;;;;;;;5134007;28;20429;-67
2023/03/14 08:15:35;;;;;;;7.03;6.37;;;;;;;;;;5134027;28;20448;-68
2023/03/14 08:18:02;;;;;;;10.87;6.70;;;;;;;;;;5133401;28;20498;-68
2023/03/14 08:20:30;;;;;;;6.10;5.60;;;;;;;;;;5133920;28;20923;-67
2023/03/14 08:22:58;;;;;;;6.70;6.10;;;;;;;;;;5134116;28;20427;-67
2023/03/14 08:25:25;;;;;;;6.57;5.90;;;;;;;;;;5134340;28;20770;-68
2023/03/14 08:27:53;;;;;;;7.70;6.63;;;;;;;;;;5133927;28;20436;-67
2023/03/14 08:30:22;;;;;;;6.40;5.90;;;;;;;;;;5133789;28;20430;-67
2023/03/14 08:32:49;;;;;;;7.33;5.70;;;;;;;;;;5133843;28;20437;-67
2023/03/14 08:35:16;;;;;;;6.87;6.27;;;;;;;;;;5134247;28;20432;-67
2023/03/14 08:37:44;;;;;;;7.93;5.47;;;;;;;;;;5136210;27;20426;-67
2023/03/14 08:40:11;;;;;;;6.20;5.70;;;;;;;;;;5138693;27;20434;-67
2023/03/14 08:42:39;;;;;;;6.87;5.80;;;;;;;;;;5137929;27;20914;-67
2023/03/14 08:45:07;;;;;;;7.43;5.10;;;;;;;;;;5138221;27;20533;-67
2023/03/14 08:47:35;;;;;;;6.83;6.10;;;;;;;;;;5137723;27;20709;-67
2023/03/14 08:50:03;;;;;;;6.20;5.70;;;;;;;;;;5137735;27;20442;-67
2023/03/14 08:52:31;;;;;;;6.37;5.87;;;;;;;;;;5137842;27;20550;-67
2023/03/14 08:54:58;;;;;;;6.27;5.63;;;;;;;;;;5137978;27;20435;-67
2023/03/14 08:57:27;;;;;;;7.40;6.30;;;;;;;;;;5138208;27;20522;-67
2023/03/14 08:59:55;;;;;;;6.23;5.73;;;;;;;;;;5137535;27;20479;-67
2023/03/14 09:02:22;;;;;;;8.63;5.90;;;;;;;;;;5137757;27;20431;-68
2023/03/14 09:04:51;;;;;;;7.40;6.57;;;;;;;;;;5138838;27;20783;-67
2023/03/14 09:07:18;;;;;;;9.83;6.40;;;;;;;;;;5137448;27;20942;-67
2023/03/14 09:09:46;;;;;;;7.53;6.70;;;;;;;;;;5137633;27;20442;-67
2023/03/14 09:12:13;;;;;;;6.70;6.20;;;;;;;;;;5137501;27;20997;-67
2023/03/14 09:14:40;;;;;;;7.40;6.70;;;;;;;;;;5137589;27;20439;-67
2023/03/14 09:17:07;;;;;;;7.97;7.27;;;;;;;;;;5137250;27;20434;-67
2023/03/14 09:19:35;;;;;;;7.30;6.70;;;;;;;;;;5137452;27;20427;-67
2023/03/14 09:22:03;;;;;;;7.03;6.43;;;;;;;;;;5137128;27;20943;-67
2023/03/14 09:24:30;;;;;;;6.43;5.80;;;;;;;;;;5137018;27;20439;-67
2023/03/14 09:26:58;;;;;;;6.13;5.17;;;;;;;;;;5137260;27;20436;-67
2023/03/14 09:29:25;;;;;;;4.77;4.30;;;;;;;;;;5137477;27;20481;-67
2023/03/14 09:31:52;;;;;;;5.00;4.60;;;;;;;;;;5137183;27;20470;-79
2023/03/14 09:34:19;;;;;;;5.17;4.67;;;;;;;;;;5137146;27;20437;-77
2023/03/14 09:36:47;;;;;;;6.10;5.60;;;;;;;;;;5137504;27;20783;-69
2023/03/14 09:39:16;;;;;;;5.43;4.77;;;;;;;;;;5137093;27;20430;-68
2023/03/14 09:41:45;;;;;;;5.13;4.73;;;;;;;;;;5135231;27;20430;-68
2023/03/14 09:44:13;;;;;;;3.83;2.40;;;;;;;;;;5136494;27;20916;-68
2023/03/14 09:46:42;;;;;;;5.83;1.90;;;;;;;;;;5137123;27;20423;-69
2023/03/14 09:49:13;;;;;;;1.50;1.40;;;;;;;;;;5136301;27;20534;-70
2023/03/14 09:51:40;;;;;;;2.50;1.27;;;;;;;;;;5136138;27;20455;-69
2023/03/14 09:54:16;;;;;;;1.30;1.20;;;;;;;;;;5136763;27;20449;-71
2023/03/14 09:56:45;;;;;;;1.57;1.20;;;;;;;;;;5136956;27;20182;-71
2023/03/14 09:59:13;;;;;;;7.68;1.45;;;;;;;;;;5136244;27;20439;-70
2023/03/14 10:01:41;;;;;;;8.07;1.47;;;;;;;;;;5136343;27;20706;-71
2023/03/14 10:04:08;;;;;;;1.90;1.10;;;;;;;;;;5136277;27;20468;-70
2023/03/14 10:06:35;;;;;;;1.80;1.00;;;;;;;;;;5136767;27;20194;-70
2023/03/14 10:09:05;;;;;;;1.35;1.27;;;;;;;;;;5136518;27;20278;-71
2023/03/14 10:11:32;;;;;;;1.90;1.33;;;;;;;;;;5136342;27;20216;-69
2023/03/14 10:14:08;;;;;;;1.33;1.23;;;;;;;;;;5135986;27;20192;-71
2023/03/14 10:16:37;;;;;;;2.83;1.20;;;;;;;;;;5136433;27;20180;-71
2023/03/14 10:19:06;;;;;;;1.73;1.25;;;;;;;;;;5136242;27;20453;-71
2023/03/14 10:21:37;;;;;;;1.33;1.23;;;;;;;;;;5135953;27;20196;-71
2023/03/14 10:24:17;;;;;;;2.20;1.35;;;;;;;;;;5136504;27;20284;-71
2023/03/14 10:26:44;;;;;;;1.83;1.30;;;;;;;;;;5136244;27;20186;-71
2023/03/14 10:29:14;;;;;;;1.27;1.13;;;;;;;;;;5135586;27;20192;-72
2023/03/14 10:31:48;;;;;;;2.53;1.30;;;;;;;;;;5135965;27;20218;-70
2023/03/14 10:34:17;;;;;;;1.70;1.05;;;;;;;;;;5136185;27;20188;-69
2023/03/14 10:36:45;;;;;;;7.13;1.40;;;;;;;;;;5136096;27;20188;-70
2023/03/14 10:39:25;;;;;;;1.38;1.30;;;;;;;;;;5135737;27;20188;-70
2023/03/14 10:41:54;;;;;;;1.30;1.20;;;;;;;;;;5135696;27;20248;-70
2023/03/14 10:44:25;;;;;;;1.00;1.00;;;;;;;;;;5135785;27;20196;-70
2023/03/14 10:46:58;;;;;;;1.20;1.10;;;;;;;;;;5135861;27;20180;-69
2023/03/14 10:49:28;;;;;;;1.75;1.63;;;;;;;;;;5135766;27;20494;-69
2023/03/14 10:51:55;;;;;;;1.42;1.33;;;;;;;;;;5135871;27;20204;-70
2023/03/14 10:54:23;;;;;;;1.63;1.52;;;;;;;;;;5135547;27;20201;-71
2023/03/14 10:56:57;;;;;;;1.55;1.40;;;;;;;;;;5135279;27;20188;-70
2023/03/14 10:59:26;;;;;;;2.97;1.80;;;;;;;;;;5134818;27;20270;-70
2023/03/14 11:01:57;;;;;;;3.35;2.28;;;;;;;;;;5135492;27;20195;-70
2023/03/14 11:04:35;;;;;;;1.67;1.30;;;;;;;;;;5135133;27;20550;-69
2023/03/14 11:07:06;;;;;;;2.25;1.30;;;;;;;;;;5135413;27;20183;-69
2023/03/14 11:09:35;;;;;;;1.50;1.23;;;;;;;;;;5134947;27;20630;-69
2023/03/14 11:12:04;;;;;;;3.10;1.40;;;;;;;;;;5134806;27;20214;-69
2023/03/14 11:14:35;;;;;;;1.80;1.70;;;;;;;;;;5134865;27;20194;-69
2023/03/14 11:17:06;;;;;;;4.05;1.20;;;;;;;;;;5135259;27;20184;-69
2023/03/14 11:19:51;;;;;;;1.63;1.15;;;;;;;;;;5135381;27;20655;-69
2023/03/14 11:22:23;;;;;;;2.83;1.40;;;;;;;;;;5135012;27;20281;-69
2023/03/14 11:25:00;;;;;;;1.48;1.30;;;;;;;;;;5134694;27;20183;-69
2023/03/14 11:27:30;;;;;;;2.83;1.42;;;;;;;;;;5135021;27;20189;-69
2023/03/14 11:30:03;;;;;;;2.28;1.40;;;;;;;;;;5134863;27;20185;-69
2023/03/14 11:32:38;;;;;;;1.75;1.30;;;;;;;;;;5134820;27;20206;-68
2023/03/14 11:35:10;;;;;;;6.93;1.55;;;;;;;;;;5134816;27;20182;-69
2023/03/14 11:37:43;;;;;;;5.03;1.55;;;;;;;;;;5135260;27;20203;-71
2023/03/14 11:40:14;;;;;;;8.73;1.98;;;;;;;;;;5134664;27;20186;-69
2023/03/14 11:42:44;;;;;;;3.38;1.73;;;;;;;;;;5134317;27;20223;-69
2023/03/14 11:45:18;;;;;;;4.97;3.00;;;;;;;;;;5134056;27;20189;-69
2023/03/14 11:47:46;;;;;;;2.63;2.42;;;;;;;;;;5134909;27;20247;-69
2023/03/14 11:50:17;;;;;;;3.05;2.72;;;;;;;;;;5134580;27;20243;-69
2023/03/14 11:52:48;;;;;;;3.70;2.90;;;;;;;;;;5134526;27;20206;-69
2023/03/14 11:55:19;;;;;;;6.05;3.60;;;;;;;;;;5134438;27;20532;-69
2023/03/14 11:57:47;;;;;;;2.53;2.33;;;;;;;;;;5135158;27;20188;-69
2023/03/14 12:00:18;;;;;;;3.42;2.63;;;;;;;;;;5134134;27;20195;-68
2023/03/14 12:02:50;;;;;;;5.15;2.65;;;;;;;;;;5135302;27;20524;-69
2023/03/14 12:05:38;;;;;;;6.20;3.67;;;;;;;;;;5134609;27;20185;-69
2023/03/14 12:08:21;;;;;;;4.00;2.60;;;;;;;;;;5134242;28;20187;-69
2023/03/14 12:10:50;;;;;;;5.03;2.50;;;;;;;;;;5135273;27;20183;-69
2023/03/14 12:13:17;;;;;;;5.78;2.45;;;;;;;;;;5141255;27;20226;-69
2023/03/14 12:15:50;;;;;;;4.18;2.30;;;;;;;;;;5140881;27;20231;-69
2023/03/14 12:18:22;;;;;;;7.88;2.47;;;;;;;;;;5141864;27;20262;-69
2023/03/14 12:20:53;;;;;;;5.43;2.60;;;;;;;;;;5141487;27;20191;-68
2023/03/14 12:23:21;;;;;;;5.13;2.47;;;;;;;;;;5141831;27;20590;-69
2023/03/14 12:25:48;;;;;;;8.15;1.98;;;;;;;;;;5141455;27;20184;-69
2023/03/14 12:28:20;;;;;;;7.38;2.30;;;;;;;;;;5141286;27;20270;-69
2023/03/14 12:30:47;;;;;;;7.65;2.05;;;;;;;;;;5141148;27;20547;-69
2023/03/14 12:33:32;;;;;;;8.30;2.20;;;;;;;;;;5141060;27;20211;-69
2023/03/14 12:36:01;;;;;;;4.43;2.22;;;;;;;;;;5140804;27;20224;-69
2023/03/14 12:38:33;;;;;;;7.53;2.30;;;;;;;;;;5141150;27;20233;-68
2023/03/14 12:41:03;;;;;;;13.70;3.28;;;;;;;;;;5141145;27;20186;-68
2023/03/14 12:43:31;;;;;;;14.18;2.38;;;;;;;;;;5140978;27;20188;-69
2023/03/14 12:46:21;;;;;;;10.02;2.47;;;;;;;;;;5141266;27;20198;-69
2023/03/14 12:48:51;;;;;;;7.60;2.70;;;;;;;;;;5141307;27;20180;-69
2023/03/14 12:51:19;;;;;;;14.10;2.78;;;;;;;;;;5140992;27;20184;-68
2023/03/14 12:54:07;;;;;;;8.68;2.47;;;;;;;;;;5140920;27;20218;-68
2023/03/14 12:56:41;;;;;;;6.60;1.65;;;;;;;;;;5141078;27;20180;-69
2023/03/14 12:59:28;;;;;;;20.42;3.38;;;;;;;;;;5140950;27;20186;-68
2023/03/14 13:01:56;;;;;;;10.65;3.67;;;;;;;;;;5141051;27;20176;-68
2023/03/14 13:04:29;;;;;;;8.70;2.92;;;;;;;;;;5140716;27;20227;-68
2023/03/14 13:06:59;;;;;;;14.15;2.78;;;;;;;;;;5140770;27;20202;-68
2023/03/14 13:09:36;;;;;;;7.97;2.40;;;;;;;;;;5140705;27;20198;-68
2023/03/14 13:12:08;;;;;;;17.20;3.03;;;;;;;;;;5140299;27;20188;-68
2023/03/14 13:14:36;;;;;;;16.38;2.90;;;;;;;;;;5141145;27;20194;-69
2023/03/14 13:17:04;;;;;;;16.70;3.97;;;;;;;;;;5140708;27;20219;-68
2023/03/14 13:19:34;;;;;;;10.13;2.78;;;;;;;;;;5140284;27;20188;-68
2023/03/14 13:22:03;;;;;;;12.18;3.35;;;;;;;;;;5138624;27;20191;-68
2023/03/14 13:24:31;;;;;;;7.32;2.72;;;;;;;;;;5136970;27;20202;-68
2023/03/14 13:26:59;;;;;;;12.43;2.88;;;;;;;;;;5137167;27;20219;-68
2023/03/14 13:29:27;;;;;;;12.15;3.20;;;;;;;;;;5137349;27;20191;-69
2023/03/14 13:31:57;;;;;;;10.75;2.67;;;;;;;;;;5137166;27;20219;-69
2023/03/14 13:34:26;;;;;;;16.17;4.30;;;;;;;;;;5136846;27;20275;-68
2023/03/14 13:36:55;;;;;;;11.00;3.63;;;;;;;;;;5136960;27;20212;-68
2023/03/14 13:39:24;;;;;;;15.18;3.33;;;;;;;;;;5137224;27;20194;-68
2023/03/14 13:41:52;;;;;;;9.50;3.55;;;;;;;;;;5136577;27;20698;-68
2023/03/14 13:44:23;;;;;;;17.10;3.95;;;;;;;;;;5136980;27;20282;-68
2023/03/14 13:46:50;;;;;;;8.60;2.78;;;;;;;;;;5136845;27;20206;-69
2023/03/14 13:49:22;;;;;;;15.48;3.22;;;;;;;;;;5137411;27;20200;-68
2023/03/14 13:51:49;;;;;;;16.33;2.53;;;;;;;;;;5136770;27;20184;-68
2023/03/14 13:54:19;;;;;;;16.63;2.85;;;;;;;;;;5136695;27;20299;-68
2023/03/14 13:56:46;;;;;;;9.05;2.70;;;;;;;;;;5136430;27;20637;-68
2023/03/14 13:59:23;;;;;;;13.50;3.65;;;;;;;;;;5136531;27;20241;-68
2023/03/14 14:01:51;;;;;;;9.50;2.90;;;;;;;;;;5136517;27;20600;-68
2023/03/14 14:04:21;;;;;;;5.97;2.03;;;;;;;;;;5136457;27;20510;-68
2023/03/14 14:06:51;;;;;;;9.98;2.50;;;;;;;;;;5136119;27;20192;-69
2023/03/14 14:09:21;;;;;;;13.77;4.18;;;;;;;;;;5136932;27;20192;-69
2023/03/14 14:11:50;;;;;;;8.65;2.53;;;;;;;;;;5136842;27;20476;-68
2023/03/14 14:14:20;;;;;;;15.82;3.35;;;;;;;;;;5135881;27;20226;-68
2023/03/14 14:16:48;;;;;;;5.95;2.25;;;;;;;;;;5136376;27;20267;-68
2023/03/14 14:19:17;;;;;;;9.38;2.38;;;;;;;;;;5136339;27;20228;-69
2023/03/14 14:21:44;;;;;;;8.23;2.10;;;;;;;;;;5135917;27;20267;-68
2023/03/14 14:24:14;;;;;;;15.07;3.03;;;;;;;;;;5135927;27;20188;-68
2023/03/14 14:26:43;;;;;;;5.80;2.47;;;;;;;;;;5136110;27;20590;-68
2023/03/14 14:29:22;;;;;;;9.45;2.78;;;;;;;;;;5135566;27;20196;-68
2023/03/14 14:32:01;;;;;;;8.23;2.40;;;;;;;;;;5135888;27;20202;-68
2023/03/14 14:34:28;;;;;;;4.90;2.17;;;;;;;;;;5134843;27;20222;-68
2023/03/14 14:36:55;;;;;;;7.43;1.73;;;;;;;;;;5135858;27;20192;-69
2023/03/14 14:39:24;;;;;;;15.55;3.50;;;;;;;;;;5135567;27;20192;-69
2023/03/14 14:41:54;;;;;;;7.22;2.85;;;;;;;;;;5135576;27;20194;-68
2023/03/14 14:44:23;;;;;;;7.97;2.50;;;;;;;;;;5135366;27;20195;-68
2023/03/14 14:46:50;;;;;;;8.35;2.33;;;;;;;;;;5135608;27;20429;-70
2023/03/14 14:49:20;;;;;;;3.63;2.45;;;;;;;;;;5135534;27;20227;-68